createdAt,value
2022-09-11T00:00:21.453Z,8.30
2022-09-11T00:05:27.270Z,9.20
2022-09-11T00:10:29.184Z,8.80
2022-09-11T00:15:30.860Z,7.00
2022-09-11T00:20:33.980Z,10.00
2022-09-11T00:25:37.822Z,8.50
2022-09-11T00:30:39.548Z,6.90
2022-09-11T00:35:41.903Z,9.00
2022-09-11T00:40:48.329Z,8.50
2022-09-11T00:46:01.963Z,8.70
2022-09-11T00:51:04.748Z,9.00
2022-09-11T00:56:08.209Z,7.90
2022-09-11T01:01:10.767Z,7.90
2022-09-11T01:06:14.127Z,7.70
2022-09-11T01:11:44.484Z,6.70
2022-09-11T01:17:12.664Z,7.40
2022-09-11T01:22:31.431Z,6.80
2022-09-11T01:27:50.320Z,6.90
2022-09-11T01:33:11.352Z,7.30
2022-09-11T01:38:33.263Z,6.80
2022-09-11T01:43:41.469Z,8.00
2022-09-11T01:48:48.773Z,7.00
2022-09-11T01:53:52.926Z,7.20
2022-09-11T01:59:14.281Z,7.30
2022-09-11T02:04:31.688Z,6.50
2022-09-11T02:09:45.261Z,6.40
2022-09-11T02:14:49.639Z,6.10
2022-09-11T02:19:54.968Z,7.00
2022-09-11T02:24:57.150Z,7.00
2022-09-11T02:30:00.176Z,7.20
2022-09-11T02:35:05.243Z,6.90
2022-09-11T02:40:41.785Z,6.40
2022-09-11T02:46:02.695Z,6.20
2022-09-11T02:51:17.399Z,7.20
2022-09-11T02:56:38.178Z,7.50
2022-09-11T03:01:52.011Z,7.60
2022-09-11T03:06:58.743Z,7.60
2022-09-11T03:12:02.001Z,7.50
2022-09-11T03:17:05.871Z,6.60
2022-09-11T03:22:09.631Z,6.70
2022-09-11T03:27:11.673Z,7.00
2022-09-11T03:32:35.277Z,6.20
2022-09-11T03:37:47.701Z,5.80
2022-09-11T03:42:50.442Z,6.60
2022-09-11T03:47:53.834Z,6.30
2022-09-11T03:52:55.921Z,6.20
2022-09-11T03:57:59.338Z,7.00
2022-09-11T04:03:02.123Z,6.90
2022-09-11T04:08:08.011Z,7.30
2022-09-11T04:13:11.089Z,7.40
2022-09-11T04:18:13.812Z,6.90
2022-09-11T04:23:15.900Z,7.60
2022-09-11T04:28:28.859Z,6.60
2022-09-11T04:33:31.003Z,6.50
2022-09-11T04:38:33.997Z,6.80
2022-09-11T04:43:38.487Z,6.20
2022-09-11T04:48:51.888Z,6.10
2022-09-11T04:54:18.357Z,6.40
2022-09-11T04:59:26.789Z,7.50
2022-09-11T05:04:41.771Z,6.20
2022-09-11T05:09:43.863Z,6.30
2022-09-11T05:14:57.771Z,6.70
2022-09-11T05:20:00.908Z,7.30
2022-09-11T05:25:05.281Z,6.30
2022-09-11T05:30:07.906Z,6.30
2022-09-11T05:35:09.751Z,6.90
2022-09-11T05:40:12.642Z,6.70
2022-09-11T05:45:15.430Z,6.30
2022-09-11T05:50:17.282Z,6.50
2022-09-11T05:55:20.082Z,6.20
2022-09-11T06:00:22.291Z,6.90
2022-09-11T06:05:45.275Z,6.90
2022-09-11T06:10:55.291Z,6.10
2022-09-11T06:15:57.211Z,6.00
2022-09-11T06:21:01.831Z,5.20
2022-09-11T06:26:13.095Z,5.80
2022-09-11T06:31:18.610Z,7.30
2022-09-11T06:36:24.082Z,7.30
2022-09-11T06:41:46.244Z,8.00
2022-09-11T06:46:57.603Z,8.60
2022-09-11T06:51:59.604Z,8.90
2022-09-11T06:57:02.675Z,7.90
2022-09-11T07:02:05.242Z,7.30
2022-09-11T07:07:07.305Z,7.50
2022-09-11T07:12:10.389Z,6.00
2022-09-11T07:17:12.886Z,7.70
2022-09-11T07:22:15.570Z,6.80
2022-09-11T07:27:19.713Z,7.70
2022-09-11T07:32:22.250Z,6.40
2022-09-11T07:37:24.611Z,7.70
2022-09-11T07:42:27.336Z,7.50
2022-09-11T07:47:29.263Z,6.20
2022-09-11T07:52:32.191Z,4.90
2022-09-11T07:57:36.649Z,6.50
2022-09-11T08:02:42.993Z,7.00
2022-09-11T08:07:45.312Z,7.70
2022-09-11T08:12:48.227Z,8.20
2022-09-11T08:17:51.840Z,8.50
2022-09-11T08:22:53.880Z,7.40
2022-09-11T08:28:09.206Z,7.70
2022-09-11T08:33:12.495Z,6.10
2022-09-11T08:38:14.311Z,6.90
2022-09-11T08:43:24.808Z,7.30
2022-09-11T08:48:39.431Z,7.40
2022-09-11T08:53:42.831Z,6.80
2022-09-11T08:59:03.232Z,5.60
2022-09-11T09:04:26.266Z,5.10
2022-09-11T09:09:53.642Z,3.80
2022-09-11T09:15:07.653Z,4.40
2022-09-11T09:20:23.253Z,4.10
2022-09-11T09:25:26.783Z,4.00
2022-09-11T09:30:35.751Z,2.90
2022-09-11T09:36:01.260Z,3.30
2022-09-11T09:41:26.494Z,2.90
2022-09-11T09:46:42.607Z,3.20
2022-09-11T09:51:44.766Z,3.10
2022-09-11T09:56:57.142Z,2.80
2022-09-11T10:01:58.905Z,2.70
2022-09-11T10:07:13.970Z,3.20
2022-09-11T10:12:20.485Z,3.10
2022-09-11T10:17:29.838Z,3.50
2022-09-11T10:22:32.443Z,2.90
2022-09-11T10:27:42.845Z,3.60
2022-09-11T10:32:44.562Z,3.20
2022-09-11T10:37:46.493Z,3.10
2022-09-11T10:42:50.457Z,3.20
2022-09-11T10:47:52.435Z,3.40
2022-09-11T10:53:12.325Z,3.30
2022-09-11T10:58:18.926Z,3.40
2022-09-11T11:03:25.305Z,3.60
2022-09-11T11:08:50.956Z,3.60
2022-09-11T11:13:55.716Z,2.90
2022-09-11T11:19:30.330Z,2.90
2022-09-11T11:25:03.088Z,2.90
2022-09-11T11:30:17.326Z,2.40
2022-09-11T11:35:26.687Z,2.50
2022-09-11T11:40:36.959Z,3.10
2022-09-11T11:46:02.421Z,2.90
2022-09-11T11:51:15.292Z,3.10
2022-09-11T11:56:16.891Z,3.60
2022-09-11T12:01:29.488Z,3.90
2022-09-11T12:06:31.526Z,2.90
2022-09-11T12:11:33.866Z,3.30
2022-09-11T12:16:56.259Z,3.60
2022-09-11T12:22:16.886Z,3.40
2022-09-11T12:27:32.985Z,2.60
2022-09-11T12:32:42.553Z,3.30
2022-09-11T12:37:53.573Z,2.80
2022-09-11T12:43:17.034Z,3.40
2022-09-11T12:48:26.156Z,2.80
2022-09-11T12:53:37.291Z,2.80
2022-09-11T12:58:41.792Z,4.00
2022-09-11T13:04:01.922Z,4.60
2022-09-11T13:09:05.922Z,4.10
2022-09-11T13:14:49.375Z,3.90
2022-09-11T13:19:52.072Z,4.20
2022-09-11T13:25:14.509Z,3.70
2022-09-11T13:30:21.753Z,3.10
2022-09-11T13:35:27.275Z,3.30
2022-09-11T13:41:00.169Z,3.10
2022-09-11T13:46:17.295Z,3.30
2022-09-11T13:51:27.100Z,2.80
2022-09-11T13:56:47.489Z,3.70
2022-09-11T14:02:31.415Z,3.50
2022-09-11T14:07:41.542Z,3.10
2022-09-11T14:13:29.221Z,3.70
2022-09-11T14:18:43.404Z,2.10
2022-09-11T14:23:52.986Z,2.80
2022-09-11T14:29:00.350Z,3.40
2022-09-11T14:34:12.331Z,3.60
2022-09-11T14:39:43.646Z,3.80
2022-09-11T14:44:45.538Z,4.00
2022-09-11T14:49:48.329Z,4.10
2022-09-11T14:54:50.154Z,5.10
2022-09-11T14:59:52.550Z,4.10
2022-09-11T15:05:11.239Z,4.70
2022-09-11T15:10:14.639Z,4.80
2022-09-11T15:15:17.802Z,5.20
2022-09-11T15:20:20.872Z,5.30
2022-09-11T15:25:23.143Z,4.60
2022-09-11T15:30:25.832Z,5.00
2022-09-11T15:35:32.648Z,4.60
2022-09-11T15:40:35.438Z,5.30
2022-09-11T15:45:42.603Z,5.30
2022-09-11T15:50:44.509Z,8.70
2022-09-11T15:55:46.275Z,8.00
2022-09-11T16:00:48.195Z,8.70
2022-09-11T16:05:57.391Z,9.20
2022-09-11T16:11:04.298Z,8.10
2022-09-11T16:16:07.265Z,9.50
2022-09-11T16:21:11.530Z,9.80
2022-09-11T16:26:27.722Z,10.90
2022-09-11T16:31:29.566Z,9.40
2022-09-11T16:36:38.676Z,9.00
2022-09-11T16:41:40.957Z,8.50
2022-09-11T16:46:44.270Z,9.80
2022-09-11T16:51:47.987Z,8.50
2022-09-11T16:56:49.867Z,9.30
2022-09-11T17:01:52.707Z,8.30
2022-09-11T17:06:54.645Z,7.20
2022-09-11T17:11:56.424Z,7.40
2022-09-11T17:16:58.070Z,6.00
2022-09-11T17:22:00.279Z,8.10
2022-09-11T17:27:02.442Z,6.30
2022-09-11T17:32:27.343Z,6.40
2022-09-11T17:37:28.619Z,7.00
2022-09-11T17:42:32.394Z,7.30
2022-09-11T17:47:34.505Z,6.50
2022-09-11T17:52:56.403Z,7.40
2022-09-11T17:58:11.614Z,7.20
2022-09-11T18:03:13.871Z,7.30
2022-09-11T18:08:15.954Z,7.60
2022-09-11T18:13:17.736Z,7.70
2022-09-11T18:18:19.810Z,6.40
2022-09-11T18:23:24.560Z,7.40
2022-09-11T18:28:27.649Z,6.00
2022-09-11T18:33:29.461Z,6.80
2022-09-11T18:38:33.171Z,6.80
2022-09-11T18:43:36.568Z,6.40
2022-09-11T18:48:39.777Z,7.20
2022-09-11T18:53:42.943Z,6.70
2022-09-11T18:58:47.847Z,6.50
2022-09-11T19:03:51.890Z,6.30
2022-09-11T19:08:55.897Z,6.10
2022-09-11T19:14:08.815Z,5.60
2022-09-11T19:19:13.491Z,6.50
2022-09-11T19:24:36.229Z,9.90
2022-09-11T19:29:38.111Z,7.70
2022-09-11T19:34:46.414Z,6.40
2022-09-11T19:39:55.939Z,6.30
2022-09-11T19:45:10.885Z,6.80
2022-09-11T19:50:17.572Z,5.80
2022-09-11T19:55:19.356Z,7.30
2022-09-11T20:00:41.320Z,7.30
2022-09-11T20:05:56.607Z,7.80
2022-09-11T20:11:02.162Z,6.80
2022-09-11T20:16:05.686Z,7.20
2022-09-11T20:21:12.570Z,7.40
2022-09-11T20:26:18.748Z,7.10
2022-09-11T20:31:26.793Z,8.00
2022-09-11T20:36:30.158Z,7.60
2022-09-11T20:41:33.383Z,8.00
2022-09-11T20:46:35.072Z,6.80
2022-09-11T20:51:36.953Z,7.80
2022-09-11T20:56:39.160Z,7.90
2022-09-11T21:01:40.945Z,8.00
2022-09-11T21:06:42.707Z,8.40
2022-09-11T21:11:52.633Z,8.80
2022-09-11T21:16:54.454Z,8.50
2022-09-11T21:21:56.288Z,9.50
2022-09-11T21:26:58.022Z,10.20
2022-09-11T21:31:59.779Z,9.90
2022-09-11T21:37:01.571Z,9.90
2022-09-11T21:42:03.263Z,10.80
2022-09-11T21:47:05.265Z,10.50
2022-09-11T21:52:07.663Z,10.20
2022-09-11T21:57:09.380Z,10.60
2022-09-11T22:02:11.980Z,10.00
2022-09-11T22:07:15.623Z,10.70
2022-09-11T22:12:17.476Z,9.40
2022-09-11T22:17:19.534Z,9.40
2022-09-11T22:22:21.333Z,10.20
2022-09-11T22:27:23.143Z,8.80
2022-09-11T22:32:24.997Z,9.50
2022-09-11T22:37:26.803Z,9.70
2022-09-11T22:42:30.933Z,9.70
2022-09-11T22:47:35.964Z,10.90
2022-09-11T22:52:38.068Z,10.80
2022-09-11T22:57:40.146Z,13.80
2022-09-11T23:02:42.032Z,10.20
2022-09-11T23:07:44.867Z,10.40
2022-09-11T23:12:46.597Z,9.30
2022-09-11T23:17:48.317Z,10.40
2022-09-11T23:22:50.238Z,9.70
2022-09-11T23:27:53.650Z,9.30
2022-09-11T23:32:55.318Z,9.60
2022-09-11T23:37:57.202Z,10.30
2022-09-11T23:42:59.024Z,9.50
2022-09-11T23:48:00.926Z,9.90
2022-09-11T23:53:02.643Z,9.80
2022-09-11T23:58:04.399Z,10.70
